createdAt,value
2018-07-22T00:00:24.519Z,22.59
2018-07-22T00:01:24.587Z,22.60
2018-07-22T00:02:24.655Z,22.60
2018-07-22T00:03:24.727Z,22.57
2018-07-22T00:04:24.806Z,22.55
2018-07-22T00:05:24.855Z,22.55
2018-07-22T00:06:24.927Z,22.50
2018-07-22T00:07:24.988Z,22.47
2018-07-22T00:08:25.063Z,22.43
2018-07-22T00:09:25.131Z,22.47
2018-07-22T00:10:25.190Z,22.41
2018-07-22T00:11:25.257Z,22.51
2018-07-22T00:12:25.323Z,22.45
2018-07-22T00:13:25.396Z,22.43
2018-07-22T00:14:25.468Z,22.33
2018-07-22T00:15:25.524Z,22.50
2018-07-22T00:16:25.588Z,22.41
2018-07-22T00:17:25.656Z,22.35
2018-07-22T00:18:25.732Z,22.35
2018-07-22T00:19:25.800Z,22.36
2018-07-22T00:20:25.856Z,22.33
2018-07-22T00:21:26.680Z,22.26
2018-07-22T00:22:25.992Z,22.29
2018-07-22T00:23:26.068Z,22.29
2018-07-22T00:24:26.139Z,22.29
2018-07-22T00:25:26.192Z,22.29
2018-07-22T00:26:26.260Z,22.28
2018-07-22T00:27:26.328Z,22.29
2018-07-22T00:28:26.396Z,22.25
2018-07-22T00:29:26.468Z,22.29
2018-07-22T00:30:26.524Z,22.22
2018-07-22T00:31:26.592Z,22.18
2018-07-22T00:32:26.653Z,22.15
2018-07-22T00:33:26.737Z,22.14
2018-07-22T00:34:26.800Z,22.13
2018-07-22T00:35:26.860Z,22.15
2018-07-22T00:36:26.924Z,22.00
2018-07-22T00:37:26.994Z,21.98
2018-07-22T00:38:27.064Z,22.06
2018-07-22T00:39:27.137Z,22.13
2018-07-22T00:40:27.193Z,22.11
2018-07-22T00:41:27.260Z,22.00
2018-07-22T00:42:27.325Z,22.04
2018-07-22T00:43:27.424Z,22.04
2018-07-22T00:44:27.461Z,22.04
2018-07-22T00:45:27.533Z,22.00
2018-07-22T00:46:27.597Z,21.92
2018-07-22T00:47:27.657Z,21.98
2018-07-22T00:48:27.733Z,21.93
2018-07-22T00:49:27.797Z,21.93
2018-07-22T00:50:27.860Z,21.85
2018-07-22T00:51:27.929Z,21.80
2018-07-22T00:52:27.992Z,21.92
2018-07-22T00:53:28.065Z,21.88
2018-07-22T00:54:28.129Z,21.76
2018-07-22T00:55:28.189Z,21.91
2018-07-22T00:56:28.257Z,21.83
2018-07-22T00:57:28.325Z,21.88
2018-07-22T00:58:28.409Z,21.75
2018-07-22T00:59:28.470Z,21.75
2018-07-22T01:00:28.529Z,21.70
2018-07-22T01:01:28.589Z,21.58
2018-07-22T01:02:28.657Z,21.58
2018-07-22T01:03:28.729Z,21.60
2018-07-22T01:04:28.793Z,21.54
2018-07-22T01:05:28.853Z,21.55
2018-07-22T01:06:28.929Z,21.58
2018-07-22T01:07:28.989Z,21.54
2018-07-22T01:08:29.065Z,21.50
2018-07-22T01:09:29.138Z,21.45
2018-07-22T01:10:29.190Z,21.48
2018-07-22T01:11:29.256Z,21.50
2018-07-22T01:12:29.321Z,21.46
2018-07-22T01:13:29.393Z,21.45
2018-07-22T01:14:29.462Z,21.39
2018-07-22T01:15:29.522Z,21.46
2018-07-22T01:16:29.585Z,21.40
2018-07-22T01:17:29.654Z,21.43
2018-07-22T01:18:29.726Z,21.33
2018-07-22T01:19:29.810Z,21.32
2018-07-22T01:20:29.854Z,21.36
2018-07-22T01:21:29.918Z,21.35
2018-07-22T01:22:29.985Z,21.33
2018-07-22T01:23:30.058Z,21.27
2018-07-22T01:24:30.132Z,21.25
2018-07-22T01:25:30.186Z,21.21
2018-07-22T01:26:30.254Z,21.25
2018-07-22T01:27:30.318Z,21.24
2018-07-22T01:28:30.502Z,21.21
2018-07-22T01:29:30.450Z,21.20
2018-07-22T01:30:30.514Z,21.17
2018-07-22T01:31:30.586Z,21.15
2018-07-22T01:32:30.651Z,21.12
2018-07-22T01:33:30.726Z,21.11
2018-07-22T01:34:30.790Z,21.05
2018-07-22T01:35:30.846Z,21.05
2018-07-22T01:36:30.914Z,21.06
2018-07-22T01:37:30.978Z,20.99
2018-07-22T01:38:31.054Z,21.00
2018-07-22T01:39:31.118Z,20.96
2018-07-22T01:40:31.199Z,20.93
2018-07-22T01:41:31.250Z,20.93
2018-07-22T01:42:31.310Z,20.92
2018-07-22T01:43:31.390Z,20.85
2018-07-22T01:44:31.451Z,20.81
2018-07-22T01:45:31.515Z,20.80
2018-07-22T01:46:31.575Z,20.78
2018-07-22T01:47:31.647Z,20.74
2018-07-22T01:48:31.718Z,20.70
2018-07-22T01:49:31.782Z,20.81
2018-07-22T01:50:31.847Z,20.75
2018-07-22T01:51:31.913Z,20.74
2018-07-22T01:52:31.975Z,20.60
2018-07-22T01:53:32.047Z,20.67
2018-07-22T01:54:32.118Z,20.62
2018-07-22T01:55:32.171Z,20.65
2018-07-22T01:56:32.239Z,20.63
2018-07-22T01:57:32.306Z,20.58
2018-07-22T01:58:32.379Z,20.65
2018-07-22T01:59:32.443Z,20.69
2018-07-22T02:00:32.507Z,20.62
2018-07-22T02:01:32.633Z,20.65
2018-07-22T02:02:32.639Z,20.65
2018-07-22T02:03:32.707Z,20.65
2018-07-22T02:04:32.775Z,20.66
2018-07-22T02:05:32.835Z,20.55
2018-07-22T02:06:32.899Z,20.59
2018-07-22T02:07:32.968Z,20.59
2018-07-22T02:08:33.039Z,20.59
2018-07-22T02:09:33.107Z,20.58
2018-07-22T02:10:33.163Z,20.62
2018-07-22T02:11:33.232Z,20.59
2018-07-22T02:12:33.296Z,20.65
2018-07-22T02:13:33.476Z,20.60
2018-07-22T02:14:33.440Z,20.59
2018-07-22T02:15:33.503Z,20.58
2018-07-22T02:16:33.563Z,20.47
2018-07-22T02:17:33.632Z,20.43
2018-07-22T02:18:33.700Z,20.43
2018-07-22T02:19:33.767Z,20.51
2018-07-22T02:20:33.828Z,20.50
2018-07-22T02:21:33.893Z,20.47
2018-07-22T02:22:33.964Z,20.44
2018-07-22T02:23:34.036Z,20.51
2018-07-22T02:24:34.112Z,20.48
2018-07-22T02:25:34.158Z,20.51
2018-07-22T02:26:34.228Z,20.41
2018-07-22T02:27:34.291Z,20.47
2018-07-22T02:28:34.364Z,20.36
2018-07-22T02:29:34.428Z,20.37
2018-07-22T02:30:34.505Z,20.41
2018-07-22T02:31:34.558Z,20.34
2018-07-22T02:32:34.620Z,20.39
2018-07-22T02:33:34.700Z,20.37
2018-07-22T02:34:34.779Z,20.36
2018-07-22T02:35:34.820Z,20.32
2018-07-22T02:36:34.885Z,20.34
2018-07-22T02:37:34.948Z,20.32
2018-07-22T02:38:35.025Z,20.29
2018-07-22T02:39:35.092Z,20.41
2018-07-22T02:40:35.148Z,20.36
2018-07-22T02:41:35.213Z,20.25
2018-07-22T02:42:35.282Z,20.37
2018-07-22T02:43:35.352Z,20.40
2018-07-22T02:44:35.417Z,20.22
2018-07-22T02:45:35.477Z,20.24
2018-07-22T02:46:35.546Z,20.34
2018-07-22T02:47:35.608Z,20.37
2018-07-22T02:48:35.685Z,20.34
2018-07-22T02:49:35.758Z,20.29
2018-07-22T02:50:35.810Z,20.34
2018-07-22T02:51:35.923Z,20.29
2018-07-22T02:52:35.946Z,20.37
2018-07-22T02:53:36.018Z,20.31
2018-07-22T02:54:36.085Z,20.32
2018-07-22T02:55:36.137Z,20.32
2018-07-22T02:56:36.207Z,20.22
2018-07-22T02:57:36.270Z,20.24
2018-07-22T02:58:36.346Z,20.28
2018-07-22T02:59:36.409Z,20.24
2018-07-22T03:00:36.469Z,20.31
2018-07-22T03:01:36.533Z,20.22
2018-07-22T03:02:36.601Z,20.21
2018-07-22T03:03:36.678Z,20.26
2018-07-22T03:04:36.743Z,20.25
2018-07-22T03:05:36.798Z,20.21
2018-07-22T03:06:36.865Z,20.21
2018-07-22T03:07:36.930Z,20.24
2018-07-22T03:08:37.002Z,20.16
2018-07-22T03:09:37.101Z,20.11
2018-07-22T03:10:37.134Z,20.16
2018-07-22T03:11:37.193Z,20.02
2018-07-22T03:12:37.261Z,20.02
2018-07-22T03:13:37.326Z,20.06
2018-07-22T03:14:37.685Z,20.07
2018-07-22T03:15:37.461Z,20.04
2018-07-22T03:16:37.521Z,20.04
2018-07-22T03:17:37.590Z,20.18
2018-07-22T03:18:37.657Z,20.06
2018-07-22T03:19:37.738Z,20.04
2018-07-22T03:20:37.796Z,19.96
2018-07-22T03:21:37.854Z,19.99
2018-07-22T03:22:37.921Z,20.06
2018-07-22T03:23:37.986Z,19.94
2018-07-22T03:24:38.058Z,20.00
2018-07-22T03:25:38.126Z,19.95
2018-07-22T03:26:38.182Z,19.96
2018-07-22T03:27:38.252Z,19.86
2018-07-22T03:28:38.314Z,19.94
2018-07-22T03:29:38.426Z,19.91
2018-07-22T03:30:38.470Z,19.85
2018-07-22T03:31:38.515Z,19.94
2018-07-22T03:32:38.583Z,19.91
2018-07-22T03:33:38.646Z,19.95
2018-07-22T03:34:38.718Z,19.95
2018-07-22T03:35:38.795Z,19.92
2018-07-22T03:36:38.847Z,19.85
2018-07-22T03:37:38.907Z,19.88
2018-07-22T03:38:38.975Z,19.76
2018-07-22T03:39:39.047Z,19.82
2018-07-22T03:40:39.119Z,19.69
2018-07-22T03:41:39.171Z,19.70
2018-07-22T03:42:39.239Z,19.70
2018-07-22T03:43:39.303Z,19.69
2018-07-22T03:44:39.683Z,19.59
2018-07-22T03:45:39.435Z,19.56
2018-07-22T03:46:39.507Z,19.54
2018-07-22T03:47:39.568Z,19.56
2018-07-22T03:48:39.647Z,19.59
2018-07-22T03:49:39.711Z,19.51
2018-07-22T03:50:39.768Z,19.45
2018-07-22T03:51:39.831Z,19.37
2018-07-22T03:52:39.891Z,19.39
2018-07-22T03:53:39.968Z,19.39
2018-07-22T03:54:40.036Z,19.39
2018-07-22T03:55:40.104Z,19.33
2018-07-22T03:56:40.172Z,19.30
2018-07-22T03:57:40.223Z,19.18
2018-07-22T03:58:40.292Z,19.19
2018-07-22T03:59:40.376Z,19.26
2018-07-22T04:00:40.425Z,19.22
2018-07-22T04:01:40.492Z,19.22
2018-07-22T04:02:40.556Z,19.18
2018-07-22T04:03:40.619Z,19.27
2018-07-22T04:04:40.696Z,19.12
2018-07-22T04:05:40.752Z,19.16
2018-07-22T04:06:40.816Z,19.09
2018-07-22T04:07:40.888Z,19.18
2018-07-22T04:08:40.953Z,19.24
2018-07-22T04:09:41.024Z,19.15
2018-07-22T04:10:41.084Z,19.16
2018-07-22T04:11:41.145Z,19.15
2018-07-22T04:12:41.216Z,19.11
2018-07-22T04:13:41.273Z,19.09
2018-07-22T04:14:41.364Z,19.07
2018-07-22T04:15:41.416Z,19.11
2018-07-22T04:16:41.473Z,19.14
2018-07-22T04:17:41.541Z,19.14
2018-07-22T04:18:41.605Z,19.09
2018-07-22T04:19:41.688Z,19.09
2018-07-22T04:20:41.744Z,19.12
2018-07-22T04:21:41.801Z,19.00
2018-07-22T04:22:41.866Z,18.98
2018-07-22T04:23:41.933Z,19.04
2018-07-22T04:24:42.013Z,19.00
2018-07-22T04:25:42.089Z,18.96
2018-07-22T04:26:42.135Z,18.99
2018-07-22T04:27:42.213Z,18.96
2018-07-22T04:28:42.265Z,18.90
2018-07-22T04:29:42.341Z,18.93
2018-07-22T04:30:42.561Z,18.89
2018-07-22T04:31:42.457Z,18.96
2018-07-22T04:32:42.526Z,18.90
2018-07-22T04:33:42.589Z,18.84
2018-07-22T04:34:42.657Z,18.81
2018-07-22T04:35:42.729Z,18.80
2018-07-22T04:36:42.833Z,18.83
2018-07-22T04:37:42.845Z,18.81
2018-07-22T04:38:42.921Z,18.84
2018-07-22T04:39:42.981Z,18.83
2018-07-22T04:40:43.076Z,18.83
2018-07-22T04:41:43.125Z,18.83
2018-07-22T04:42:43.185Z,18.81
2018-07-22T04:43:43.257Z,18.86
2018-07-22T04:44:43.313Z,18.78
2018-07-22T04:45:43.401Z,18.70
2018-07-22T04:46:43.477Z,18.71
2018-07-22T04:47:43.509Z,18.68
2018-07-22T04:48:43.577Z,18.73
2018-07-22T04:49:43.642Z,18.74
2018-07-22T04:50:43.710Z,18.66
2018-07-22T04:51:43.781Z,18.73
2018-07-22T04:52:43.833Z,18.78
2018-07-22T04:53:43.901Z,18.84
2018-07-22T04:54:43.966Z,18.81
2018-07-22T04:55:44.042Z,18.81
2018-07-22T04:56:44.125Z,18.77
2018-07-22T04:57:44.157Z,18.78
2018-07-22T04:58:44.232Z,18.80
2018-07-22T04:59:44.305Z,18.83
2018-07-22T05:00:44.474Z,18.93
2018-07-22T05:01:44.426Z,18.78
2018-07-22T05:02:44.489Z,18.90
2018-07-22T05:03:44.557Z,18.89
2018-07-22T05:04:44.622Z,18.93
2018-07-22T05:05:44.705Z,18.90
2018-07-22T05:06:44.773Z,18.90
2018-07-22T05:07:44.858Z,18.89
2018-07-22T05:08:44.882Z,18.93
2018-07-22T05:09:44.966Z,19.00
2018-07-22T05:10:45.023Z,18.90
2018-07-22T05:11:45.102Z,18.96
2018-07-22T05:12:45.146Z,18.96
2018-07-22T05:13:45.210Z,18.93
2018-07-22T05:14:45.282Z,18.98
2018-07-22T05:15:45.370Z,18.98
2018-07-22T05:16:45.422Z,18.96
2018-07-22T05:17:45.486Z,18.92
2018-07-22T05:18:45.534Z,18.90
2018-07-22T05:19:45.607Z,19.00
2018-07-22T05:20:45.678Z,19.00
2018-07-22T05:21:45.742Z,19.00
2018-07-22T05:22:45.810Z,19.04
2018-07-22T05:23:45.866Z,19.11
2018-07-22T05:24:45.934Z,19.12
2018-07-22T05:25:46.015Z,19.16
2018-07-22T05:26:46.072Z,19.11
2018-07-22T05:27:46.130Z,19.12
2018-07-22T05:28:46.195Z,19.15
2018-07-22T05:29:46.262Z,19.14
2018-07-22T05:30:46.327Z,19.12
2018-07-22T05:31:46.510Z,19.12
2018-07-22T05:32:46.463Z,19.16
2018-07-22T05:33:46.528Z,19.22
2018-07-22T05:34:46.590Z,19.26
2018-07-22T05:35:46.712Z,19.21
2018-07-22T05:36:46.733Z,19.16
2018-07-22T05:37:46.795Z,19.37
2018-07-22T05:38:46.855Z,19.40
2018-07-22T05:39:46.919Z,19.44
2018-07-22T05:40:46.987Z,19.59
2018-07-22T05:41:47.059Z,19.55
2018-07-22T05:42:47.127Z,19.62
2018-07-22T05:43:47.185Z,19.66
2018-07-22T05:44:47.259Z,19.74
2018-07-22T05:45:47.315Z,19.76
2018-07-22T05:46:47.399Z,19.92
2018-07-22T05:47:47.451Z,20.00
2018-07-22T05:48:47.515Z,19.95
2018-07-22T05:49:47.580Z,20.00
2018-07-22T05:50:47.647Z,20.07
2018-07-22T05:51:47.724Z,20.18
2018-07-22T05:52:47.784Z,20.04
2018-07-22T05:53:47.845Z,20.02
2018-07-22T05:54:47.912Z,19.99
2018-07-22T05:55:47.981Z,20.04
2018-07-22T05:56:48.052Z,20.00
2018-07-22T05:57:48.116Z,19.99
2018-07-22T05:58:48.175Z,20.02
2018-07-22T05:59:48.243Z,19.96
2018-07-22T06:00:48.307Z,19.94
2018-07-22T06:01:48.696Z,19.91
2018-07-22T06:02:48.439Z,20.02
2018-07-22T06:03:48.512Z,19.91
2018-07-22T06:04:48.571Z,20.00
2018-07-22T06:05:48.640Z,20.02
2018-07-22T06:06:48.712Z,19.91
2018-07-22T06:07:48.780Z,19.94
2018-07-22T06:08:48.844Z,19.88
2018-07-22T06:09:48.904Z,19.88
2018-07-22T06:10:48.976Z,20.11
2018-07-22T06:11:49.051Z,20.18
2018-07-22T06:12:49.112Z,20.34
2018-07-22T06:13:49.173Z,20.31
2018-07-22T06:14:49.236Z,20.28
2018-07-22T06:15:49.304Z,20.34
2018-07-22T06:16:49.416Z,20.47
2018-07-22T06:17:49.444Z,20.63
2018-07-22T06:18:49.504Z,20.58
2018-07-22T06:19:49.569Z,20.65
2018-07-22T06:20:49.637Z,20.66
2018-07-22T06:21:49.711Z,20.63
2018-07-22T06:22:49.776Z,20.74
2018-07-22T06:23:49.837Z,20.90
2018-07-22T06:24:49.901Z,21.05
2018-07-22T06:25:49.968Z,20.99
2018-07-22T06:26:50.041Z,20.96
2018-07-22T06:27:50.109Z,21.07
2018-07-22T06:28:50.170Z,21.27
2018-07-22T06:29:50.241Z,21.45
2018-07-22T06:30:50.311Z,21.67
2018-07-22T06:31:50.485Z,21.89
2018-07-22T06:32:50.437Z,22.30
2018-07-22T06:33:50.507Z,22.78
2018-07-22T06:34:50.574Z,22.93
2018-07-22T06:35:50.642Z,23.31
2018-07-22T06:36:50.717Z,23.40
2018-07-22T06:37:50.781Z,23.76
2018-07-22T06:38:50.857Z,23.76
2018-07-22T06:39:50.913Z,23.55
2018-07-22T06:40:50.985Z,23.68
2018-07-22T06:41:51.061Z,23.87
2018-07-22T06:42:51.129Z,24.05
2018-07-22T06:43:51.201Z,24.26
2018-07-22T06:44:51.257Z,24.10
2018-07-22T06:45:51.329Z,23.91
2018-07-22T06:46:51.405Z,23.77
2018-07-22T06:47:51.475Z,23.51
2018-07-22T06:48:51.538Z,23.34
2018-07-22T06:49:51.606Z,23.44
2018-07-22T06:50:51.678Z,23.23
2018-07-22T06:51:51.754Z,23.27
2018-07-22T06:52:51.821Z,23.34
2018-07-22T06:53:51.878Z,23.32
2018-07-22T06:54:51.950Z,23.51
2018-07-22T06:55:52.022Z,23.48
2018-07-22T06:56:52.246Z,23.66
2018-07-22T06:57:52.166Z,23.48
2018-07-22T06:58:52.230Z,23.46
2018-07-22T06:59:52.310Z,23.46
2018-07-22T07:00:52.428Z,23.50
2018-07-22T07:01:52.450Z,23.51
2018-07-22T07:02:52.515Z,23.62
2018-07-22T07:03:52.582Z,23.63
2018-07-22T07:04:52.691Z,23.62
2018-07-22T07:05:52.714Z,23.48
2018-07-22T07:06:52.790Z,23.40
2018-07-22T07:07:52.862Z,23.34
2018-07-22T07:08:52.922Z,23.12
2018-07-22T07:09:52.990Z,23.09
2018-07-22T07:10:53.129Z,23.12
2018-07-22T07:11:53.286Z,23.05
2018-07-22T07:12:53.203Z,23.08
2018-07-22T07:13:53.266Z,23.09
2018-07-22T07:14:53.338Z,23.15
2018-07-22T07:15:53.418Z,23.18
2018-07-22T07:16:53.482Z,23.08
2018-07-22T07:17:53.586Z,23.08
2018-07-22T07:18:53.614Z,23.21
2018-07-22T07:19:53.685Z,23.31
2018-07-22T07:20:53.820Z,23.18
2018-07-22T07:21:53.827Z,23.23
2018-07-22T07:22:53.896Z,23.37
2018-07-22T07:23:53.962Z,23.37
2018-07-22T07:24:54.027Z,23.25
2018-07-22T07:25:54.095Z,23.25
2018-07-22T07:26:54.176Z,23.27
2018-07-22T07:27:54.231Z,23.18
2018-07-22T07:28:54.299Z,23.09
2018-07-22T07:29:54.371Z,23.20
2018-07-22T07:30:54.443Z,23.36
2018-07-22T07:31:54.531Z,23.43
2018-07-22T07:32:54.583Z,23.50
2018-07-22T07:33:54.643Z,23.63
2018-07-22T07:34:54.712Z,23.84
2018-07-22T07:35:54.784Z,23.92
2018-07-22T07:36:54.856Z,23.71
2018-07-22T07:37:54.935Z,23.66
2018-07-22T07:38:54.987Z,23.76
2018-07-22T07:39:55.055Z,23.71
2018-07-22T07:40:55.156Z,23.62
2018-07-22T07:41:55.208Z,23.63
2018-07-22T07:42:55.264Z,23.62
2018-07-22T07:43:55.331Z,23.73
2018-07-22T07:44:55.399Z,23.76
2018-07-22T07:45:55.468Z,23.87
2018-07-22T07:46:55.544Z,23.73
2018-07-22T07:47:55.613Z,24.01
2018-07-22T07:48:55.677Z,23.99
2018-07-22T07:49:55.744Z,23.91
2018-07-22T07:50:55.812Z,23.86
2018-07-22T07:51:55.891Z,23.86
2018-07-22T07:52:55.956Z,23.98
2018-07-22T07:53:56.021Z,24.16
2018-07-22T07:54:56.088Z,24.29
2018-07-22T07:55:56.157Z,24.35
2018-07-22T07:56:56.380Z,25.13
2018-07-22T07:57:56.305Z,25.80
2018-07-22T07:58:56.368Z,26.60
2018-07-22T07:59:56.436Z,26.84
2018-07-22T08:00:56.509Z,27.47
2018-07-22T08:01:56.580Z,27.70
2018-07-22T08:02:56.652Z,28.17
2018-07-22T08:03:56.726Z,28.51
2018-07-22T08:04:56.788Z,28.97
2018-07-22T08:05:56.861Z,29.39
2018-07-22T08:06:56.936Z,29.65
2018-07-22T08:07:57.012Z,29.76
2018-07-22T08:08:57.076Z,30.10
2018-07-22T08:09:57.152Z,30.66
2018-07-22T08:10:57.226Z,30.12
2018-07-22T08:11:57.300Z,30.66
2018-07-22T08:12:57.388Z,31.07
2018-07-22T08:13:57.445Z,31.28
2018-07-22T08:14:57.520Z,30.39
2018-07-22T08:15:57.603Z,30.25
2018-07-22T08:16:57.668Z,30.50
2018-07-22T08:17:57.757Z,30.46
2018-07-22T08:18:57.829Z,30.81
2018-07-22T08:19:57.900Z,30.91
2018-07-22T08:20:57.977Z,30.63
2018-07-22T08:21:58.372Z,31.00
2018-07-22T08:22:58.274Z,30.53
2018-07-22T08:23:58.205Z,29.91
2018-07-22T08:24:58.273Z,30.51
2018-07-22T08:25:58.361Z,30.90
2018-07-22T08:26:58.432Z,31.15
2018-07-22T08:27:58.509Z,31.76
2018-07-22T08:28:59.057Z,31.78
2018-07-22T08:29:58.657Z,31.80
2018-07-22T08:30:58.733Z,31.64
2018-07-22T08:31:58.821Z,31.25
2018-07-22T08:32:58.893Z,31.07
2018-07-22T08:33:58.969Z,30.91
2018-07-22T08:34:59.037Z,31.33
2018-07-22T08:35:59.113Z,31.58
2018-07-22T08:36:59.189Z,32.08
2018-07-22T08:37:59.422Z,32.52
2018-07-22T08:38:59.346Z,33.27
2018-07-22T08:39:59.425Z,34.02
2018-07-22T08:40:59.502Z,34.32
2018-07-22T08:41:59.576Z,34.70
2018-07-22T08:42:59.662Z,34.10
2018-07-22T08:43:59.738Z,34.14
2018-07-22T08:44:59.814Z,34.11
2018-07-22T08:45:59.886Z,33.59
2018-07-22T08:46:59.966Z,33.45
2018-07-22T08:48:00.050Z,33.31
2018-07-22T08:49:00.142Z,32.85
2018-07-22T08:50:00.202Z,32.86
2018-07-22T08:51:00.286Z,32.95
2018-07-22T08:52:00.358Z,32.68
2018-07-22T08:53:00.450Z,32.64
2018-07-22T08:54:00.531Z,32.75
2018-07-22T08:55:00.593Z,32.89
2018-07-22T08:56:00.671Z,33.05
2018-07-22T08:57:00.751Z,32.85
2018-07-22T08:58:00.834Z,32.90
2018-07-22T08:59:00.934Z,33.07
2018-07-22T09:00:00.987Z,33.31
2018-07-22T09:01:01.074Z,33.28
2018-07-22T09:02:01.139Z,33.15
2018-07-22T09:03:01.510Z,33.58
2018-07-22T09:04:01.299Z,33.87
2018-07-22T09:05:01.378Z,33.64
2018-07-22T09:06:01.455Z,32.95
2018-07-22T09:07:01.527Z,32.53
2018-07-22T09:08:01.611Z,31.69
2018-07-22T09:09:01.691Z,31.93
2018-07-22T09:10:01.763Z,31.93
2018-07-22T09:11:01.843Z,32.21
2018-07-22T09:12:01.916Z,32.16
2018-07-22T09:13:02.004Z,32.38
2018-07-22T09:14:02.079Z,32.11
2018-07-22T09:15:02.150Z,32.23
2018-07-22T09:16:02.228Z,32.48
2018-07-22T09:17:02.304Z,32.83
2018-07-22T09:18:02.505Z,33.12
2018-07-22T09:19:02.499Z,33.07
2018-07-22T09:20:02.535Z,33.14
2018-07-22T09:21:02.608Z,33.28
2018-07-22T09:22:02.688Z,33.46
2018-07-22T09:23:02.772Z,33.40
2018-07-22T09:24:02.848Z,32.77
2018-07-22T09:25:02.916Z,32.55
2018-07-22T09:26:02.995Z,32.77
2018-07-22T09:27:03.136Z,32.59
2018-07-22T09:28:03.308Z,32.95
2018-07-22T09:29:03.233Z,33.07
2018-07-22T09:30:03.299Z,33.05
2018-07-22T09:31:03.383Z,32.80
2018-07-22T09:32:03.456Z,32.85
2018-07-22T09:33:03.536Z,32.80
2018-07-22T09:34:03.613Z,32.89
2018-07-22T09:35:03.691Z,32.40
2018-07-22T09:36:03.792Z,32.40
2018-07-22T09:37:03.840Z,32.52
2018-07-22T09:38:03.920Z,32.29
2018-07-22T09:39:04.000Z,32.15
2018-07-22T09:40:04.068Z,31.89
2018-07-22T09:41:04.149Z,31.92
2018-07-22T09:42:04.220Z,32.15
2018-07-22T09:43:04.444Z,32.41
2018-07-22T09:44:04.372Z,32.67
2018-07-22T09:45:04.453Z,32.58
2018-07-22T09:46:04.528Z,32.73
2018-07-22T09:47:04.600Z,32.90
2018-07-22T09:48:04.702Z,32.70
2018-07-22T09:49:04.756Z,32.87
2018-07-22T09:50:04.825Z,32.77
2018-07-22T09:51:04.901Z,32.21
2018-07-22T09:52:04.977Z,32.18
2018-07-22T09:53:05.061Z,32.40
2018-07-22T09:54:05.136Z,32.56
2018-07-22T09:55:05.204Z,32.59
2018-07-22T09:56:05.281Z,32.74
2018-07-22T09:57:05.357Z,32.83
2018-07-22T09:58:05.440Z,33.01
2018-07-22T09:59:05.516Z,33.05
2018-07-22T10:00:05.580Z,32.80
2018-07-22T10:01:05.662Z,32.74
2018-07-22T10:02:05.740Z,32.87
2018-07-22T10:03:05.817Z,33.14
2018-07-22T10:04:05.892Z,33.04
2018-07-22T10:05:05.959Z,32.52
2018-07-22T10:06:06.035Z,32.53
2018-07-22T10:07:06.113Z,32.89
2018-07-22T10:08:06.297Z,33.01
2018-07-22T10:09:06.257Z,32.64
2018-07-22T10:10:06.340Z,32.45
2018-07-22T10:11:06.470Z,32.34
2018-07-22T10:12:06.485Z,31.99
2018-07-22T10:13:06.565Z,32.23
2018-07-22T10:14:06.793Z,32.18
2018-07-22T10:15:06.709Z,31.93
2018-07-22T10:16:06.781Z,31.94
2018-07-22T10:17:06.857Z,32.33
2018-07-22T10:18:06.945Z,32.52
2018-07-22T10:19:07.015Z,32.75
2018-07-22T10:20:07.081Z,32.86
2018-07-22T10:21:07.158Z,32.58
2018-07-22T10:22:07.285Z,32.77
2018-07-22T10:23:07.305Z,32.64
2018-07-22T10:24:07.709Z,32.37
2018-07-22T10:25:07.453Z,32.38
2018-07-22T10:26:07.533Z,32.04
2018-07-22T10:27:07.606Z,32.11
2018-07-22T10:28:07.677Z,32.08
2018-07-22T10:29:07.757Z,32.15
2018-07-22T10:30:07.833Z,31.71
2018-07-22T10:31:07.905Z,31.70
2018-07-22T10:32:07.974Z,31.80
2018-07-22T10:33:08.046Z,31.66
2018-07-22T10:34:08.137Z,32.00
2018-07-22T10:35:08.193Z,32.36
2018-07-22T10:36:08.269Z,32.48
2018-07-22T10:37:08.342Z,32.08
2018-07-22T10:38:08.418Z,32.33
2018-07-22T10:39:08.498Z,32.53
2018-07-22T10:40:08.575Z,32.67
2018-07-22T10:41:08.641Z,32.40
2018-07-22T10:42:08.718Z,31.37
2018-07-22T10:43:08.803Z,31.62
2018-07-22T10:44:09.214Z,31.93
2018-07-22T10:45:08.938Z,32.08
2018-07-22T10:46:09.013Z,32.41
2018-07-22T10:47:09.085Z,32.48
2018-07-22T10:48:09.154Z,32.64
2018-07-22T10:49:09.382Z,32.95
2018-07-22T10:50:09.302Z,32.83
2018-07-22T10:51:09.378Z,32.65
2018-07-22T10:52:09.447Z,32.36
2018-07-22T10:53:09.538Z,31.22
2018-07-22T10:54:09.618Z,31.39
2018-07-22T10:55:09.679Z,31.52
2018-07-22T10:56:09.742Z,31.76
2018-07-22T10:57:10.238Z,31.49
2018-07-22T10:58:09.891Z,31.81
2018-07-22T10:59:09.974Z,32.09
2018-07-22T11:00:10.043Z,32.18
2018-07-22T11:01:10.111Z,32.36
2018-07-22T11:02:10.182Z,32.38
2018-07-22T11:03:10.264Z,32.49
2018-07-22T11:04:10.331Z,32.53
2018-07-22T11:05:10.419Z,32.51
2018-07-22T11:06:10.475Z,32.51
2018-07-22T11:07:10.555Z,32.34
2018-07-22T11:08:10.623Z,32.01
2018-07-22T11:09:10.699Z,32.12
2018-07-22T11:10:10.795Z,32.41
2018-07-22T11:11:10.850Z,32.43
2018-07-22T11:12:10.919Z,32.31
2018-07-22T11:13:10.987Z,32.03
2018-07-22T11:14:11.121Z,32.04
2018-07-22T11:15:11.249Z,32.08
2018-07-22T11:16:11.207Z,32.08
2018-07-22T11:17:11.283Z,32.00
2018-07-22T11:18:11.355Z,32.08
2018-07-22T11:19:11.430Z,32.34
2018-07-22T11:20:11.507Z,32.52
2018-07-22T11:21:11.597Z,32.67
2018-07-22T11:22:11.669Z,32.90
2018-07-22T11:23:11.719Z,32.85
2018-07-22T11:24:11.807Z,32.58
2018-07-22T11:25:11.878Z,32.09
2018-07-22T11:26:11.944Z,32.01
2018-07-22T11:27:12.012Z,31.99
2018-07-22T11:28:12.084Z,32.07
2018-07-22T11:29:12.160Z,32.21
2018-07-22T11:30:12.477Z,32.29
2018-07-22T11:31:12.308Z,32.33
2018-07-22T11:32:12.376Z,32.15
2018-07-22T11:33:12.451Z,32.03
2018-07-22T11:34:12.526Z,32.11
2018-07-22T11:35:12.604Z,32.29
2018-07-22T11:36:12.672Z,32.52
2018-07-22T11:37:12.747Z,32.37
2018-07-22T11:38:12.816Z,32.29
2018-07-22T11:39:12.891Z,32.34
2018-07-22T11:40:12.967Z,32.23
2018-07-22T11:41:13.044Z,32.33
2018-07-22T11:42:13.107Z,32.15
2018-07-22T11:43:13.184Z,32.03
2018-07-22T11:44:13.256Z,32.19
2018-07-22T11:45:13.366Z,32.26
2018-07-22T11:46:13.399Z,32.64
2018-07-22T11:47:13.476Z,32.73
2018-07-22T11:48:13.548Z,32.83
2018-07-22T11:49:13.620Z,33.02
2018-07-22T11:50:13.705Z,32.93
2018-07-22T11:51:13.776Z,32.36
2018-07-22T11:52:13.840Z,32.01
2018-07-22T11:53:13.916Z,32.09
2018-07-22T11:54:13.995Z,32.08
2018-07-22T11:55:14.088Z,32.46
2018-07-22T11:56:14.144Z,32.67
2018-07-22T11:57:14.207Z,32.67
2018-07-22T11:58:14.280Z,32.64
2018-07-22T11:59:14.357Z,32.89
2018-07-22T12:00:14.495Z,32.86
2018-07-22T12:01:14.504Z,32.43
2018-07-22T12:02:14.572Z,32.27
2018-07-22T12:03:14.644Z,32.21
2018-07-22T12:04:14.720Z,32.03
2018-07-22T12:05:14.800Z,31.61
2018-07-22T12:06:14.877Z,31.52
2018-07-22T12:07:14.940Z,31.71
2018-07-22T12:08:15.013Z,31.97
2018-07-22T12:09:15.083Z,31.99
2018-07-22T12:10:15.181Z,32.08
2018-07-22T12:11:15.229Z,31.93
2018-07-22T12:12:15.366Z,31.80
2018-07-22T12:13:15.372Z,31.93
2018-07-22T12:14:15.472Z,32.01
2018-07-22T12:15:15.524Z,32.29
2018-07-22T12:16:15.602Z,32.08
2018-07-22T12:17:15.664Z,32.12
2018-07-22T12:18:15.736Z,31.93
2018-07-22T12:19:15.813Z,31.85
2018-07-22T12:20:15.896Z,31.94
2018-07-22T12:21:15.993Z,31.77
2018-07-22T12:22:16.033Z,32.03
2018-07-22T12:23:16.103Z,32.33
2018-07-22T12:24:16.176Z,32.53
2018-07-22T12:25:16.564Z,32.52
2018-07-22T12:26:16.316Z,32.78
2018-07-22T12:27:16.393Z,33.09
2018-07-22T12:28:16.465Z,32.74
2018-07-22T12:29:16.553Z,32.86
2018-07-22T12:30:16.621Z,32.64
2018-07-22T12:31:16.693Z,32.22
2018-07-22T12:32:16.757Z,32.14
2018-07-22T12:33:16.830Z,32.36
2018-07-22T12:34:17.009Z,32.43
2018-07-22T12:35:16.993Z,32.12
2018-07-22T12:36:17.063Z,32.26
2018-07-22T12:37:17.141Z,32.37
2018-07-22T12:38:17.193Z,32.36
2018-07-22T12:39:17.269Z,32.56
2018-07-22T12:40:17.391Z,32.09
2018-07-22T12:41:17.556Z,32.33
2018-07-22T12:42:17.485Z,32.23
2018-07-22T12:43:17.561Z,32.30
2018-07-22T12:44:17.633Z,32.18
2018-07-22T12:45:17.705Z,32.19
2018-07-22T12:46:17.789Z,32.22
2018-07-22T12:47:17.865Z,32.37
2018-07-22T12:48:18.454Z,32.22
2018-07-22T12:49:17.998Z,32.22
2018-07-22T12:50:18.070Z,32.51
2018-07-22T12:51:18.182Z,32.89
2018-07-22T12:52:18.309Z,33.17
2018-07-22T12:53:18.294Z,33.20